Time;durP1;ratioP1;P1;durP2;ratioP2;P2;SDS_P1;SDS_P2;PMS_P1;PMS_P2;Temp;Humidity;BMP_temperature;BMP_pressure;BME280_temperature;BME280_humidity;BME280_pressure;Samples;Min_cycle;Max_cycle;Signal;HPM_P1;HPM_P2
2021/07/02 00:00:12;;;;;;;19.48;9.57;;;;;;;14.66;86.96;101627.28;5108392;28;20055;-55
2021/07/02 00:02:39;;;;;;;16.48;8.60;;;;;;;14.66;86.39;101635.25;5092515;28;20051;-55
2021/07/02 00:05:08;;;;;;;19.40;9.40;;;;;;;14.72;86.40;101633.97;5109718;28;20067;-53
2021/07/02 00:07:35;;;;;;;16.00;8.82;;;;;;;14.74;86.72;101633.84;5110103;28;20488;-54
2021/07/02 00:10:04;;;;;;;20.23;9.60;;;;;;;14.78;86.19;101628.25;5109156;28;20039;-53
2021/07/02 00:12:31;;;;;;;25.77;9.85;;;;;;;14.70;86.17;101631.41;5110393;28;20560;-55
2021/07/02 00:14:58;;;;;;;16.85;8.77;;;;;;;14.72;86.68;101625.19;5110477;28;20380;-53
2021/07/02 00:17:25;;;;;;;19.83;9.00;;;;;;;14.73;86.33;101619.78;5110308;28;20528;-55
2021/07/02 00:19:52;;;;;;;17.30;9.43;;;;;;;14.74;86.30;101621.47;5110080;28;20055;-60
2021/07/02 00:22:19;;;;;;;15.48;8.32;;;;;;;14.75;85.98;101622.31;5111384;28;20105;-60
2021/07/02 00:24:45;;;;;;;17.95;9.57;;;;;;;14.69;86.34;101621.78;5109449;28;20051;-60
2021/07/02 00:27:12;;;;;;;18.98;8.85;;;;;;;14.69;86.39;101619.13;5109291;28;20043;-60
2021/07/02 00:29:39;;;;;;;17.25;9.30;;;;;;;14.73;85.97;101630.34;5110520;28;20043;-60
2021/07/02 00:32:06;;;;;;;18.50;8.57;;;;;;;14.76;86.06;101624.84;5110384;28;20562;-60
2021/07/02 00:34:33;;;;;;;17.85;8.07;;;;;;;14.77;86.17;101623.06;5110234;28;20051;-60
2021/07/02 00:36:59;;;;;;;15.82;8.27;;;;;;;14.81;85.61;101617.44;5109774;28;20047;-60
2021/07/02 00:39:26;;;;;;;18.17;9.70;;;;;;;14.78;86.00;101622.09;5109529;28;20391;-60
2021/07/02 00:41:53;;;;;;;18.67;9.05;;;;;;;14.77;86.12;101615.94;5109986;28;20055;-60
2021/07/02 00:44:44;;;;;;;18.40;9.23;;;;;;;14.72;86.03;101622.53;5109644;28;20039;-59
2021/07/02 00:47:11;;;;;;;17.77;8.38;;;;;;;14.74;86.34;101621.47;5109158;28;20047;-60
2021/07/02 00:49:39;;;;;;;17.27;8.13;;;;;;;14.78;86.00;101630.03;5108569;28;20043;-60
2021/07/02 00:52:07;;;;;;;16.48;9.10;;;;;;;14.76;85.80;101618.72;5110517;28;20055;-60
2021/07/02 00:54:35;;;;;;;19.40;9.93;;;;;;;14.73;86.38;101619.78;5110880;28;20044;-60
2021/07/02 00:57:04;;;;;;;21.73;9.82;;;;;;;14.77;86.16;101615.94;5109890;28;20047;-60
2021/07/02 00:59:31;;;;;;;15.52;8.48;;;;;;;14.78;85.59;101611.50;5109790;27;20502;-60
2021/07/02 01:01:59;;;;;;;17.77;9.02;;;;;;;14.81;85.53;101606.84;5109267;28;20036;-59
2021/07/02 01:04:26;;;;;;;17.65;9.75;;;;;;;14.78;85.37;101608.84;5108213;28;20104;-59
2021/07/02 01:06:53;;;;;;;18.33;8.77;;;;;;;14.81;86.00;101606.00;5092751;28;20113;-60
2021/07/02 01:09:21;;;;;;;19.98;9.43;;;;;;;14.79;85.83;101602.59;5110264;28;20103;-60
2021/07/02 01:11:48;;;;;;;18.50;9.00;;;;;;;14.78;85.91;101603.53;5109286;28;20055;-52
2021/07/02 01:14:15;;;;;;;20.83;10.07;;;;;;;14.75;85.84;101601.13;5110365;28;20058;-55
2021/07/02 01:16:42;;;;;;;20.45;9.82;;;;;;;14.69;85.91;101597.13;5107538;28;20052;-55
2021/07/02 01:19:09;;;;;;;17.85;9.50;;;;;;;14.75;85.85;101604.63;5109125;28;20044;-54
2021/07/02 01:21:36;;;;;;;19.73;9.73;;;;;;;14.71;86.24;101595.19;5109611;28;20047;-60
2021/07/02 01:24:03;;;;;;;17.17;9.65;;;;;;;14.69;86.22;101600.59;5110360;28;20357;-60
2021/07/02 01:26:31;;;;;;;19.40;9.25;;;;;;;14.70;85.66;101593.53;5109713;28;20043;-60
2021/07/02 01:28:58;;;;;;;20.80;9.90;;;;;;;14.61;86.33;101600.25;5110063;28;20503;-60
2021/07/02 01:31:26;;;;;;;18.15;9.85;;;;;;;14.65;86.17;101587.69;5108954;28;20055;-52
2021/07/02 01:33:53;;;;;;;17.65;9.98;;;;;;;14.65;86.05;101607.06;5107912;28;20039;-55
2021/07/02 01:36:24;;;;;;;19.50;9.55;;;;;;;14.66;85.94;101592.88;5109718;28;20050;-54
2021/07/02 01:38:51;;;;;;;17.50;9.10;;;;;;;14.57;86.01;101601.44;5108346;28;20547;-54
2021/07/02 01:41:18;;;;;;;18.77;10.27;;;;;;;14.57;86.25;101603.25;5109261;28;20403;-54
2021/07/02 01:43:46;;;;;;;19.73;9.77;;;;;;;14.51;85.87;101599.22;5108148;28;20058;-60
2021/07/02 01:46:16;;;;;;;20.58;9.85;;;;;;;14.42;86.53;101605.16;5109390;28;20051;-60
2021/07/02 01:48:43;;;;;;;19.95;9.00;;;;;;;14.43;86.13;101604.22;5107701;28;20043;-60
2021/07/02 01:51:10;;;;;;;19.35;9.48;;;;;;;14.43;86.22;101606.88;5108121;28;20051;-59
2021/07/02 01:53:37;;;;;;;16.98;9.63;;;;;;;14.45;86.01;101600.50;5109938;28;20047;-60
2021/07/02 01:56:05;;;;;;;18.58;8.90;;;;;;;14.45;86.04;101604.94;5109801;28;20047;-60
2021/07/02 01:58:31;;;;;;;19.10;9.00;;;;;;;14.45;86.10;101604.94;5109692;28;20047;-60
2021/07/02 02:00:58;;;;;;;17.75;8.75;;;;;;;14.46;85.99;101593.41;5091089;28;20507;-59
2021/07/02 02:03:25;;;;;;;16.65;9.25;;;;;;;14.48;85.82;101596.78;5109139;28;20503;-59
2021/07/02 02:05:52;;;;;;;17.17;9.05;;;;;;;14.52;85.55;101598.28;5108602;28;20511;-60
2021/07/02 02:08:20;;;;;;;16.05;9.25;;;;;;;14.47;85.37;101593.28;5109592;28;20054;-60
2021/07/02 02:10:47;;;;;;;17.77;9.70;;;;;;;14.48;85.35;101591.47;5109210;28;20040;-59
2021/07/02 02:13:13;;;;;;;20.23;10.27;;;;;;;14.45;85.32;101591.72;5109119;28;20754;-54
2021/07/02 02:15:40;;;;;;;15.32;8.85;;;;;;;14.42;85.25;101592.75;5107576;28;20044;-53
2021/07/02 02:18:07;;;;;;;19.23;9.07;;;;;;;14.44;85.33;101592.66;5108299;28;20046;-60
2021/07/02 02:20:34;;;;;;;17.50;8.68;;;;;;;14.42;85.04;101590.13;5108099;28;20496;-59
2021/07/02 02:23:01;;;;;;;17.70;9.00;;;;;;;14.43;85.47;101596.28;5109461;28;20400;-60
2021/07/02 02:25:28;;;;;;;15.48;9.15;;;;;;;14.42;85.25;101594.56;5108446;28;20078;-59
2021/07/02 02:27:55;;;;;;;18.55;8.80;;;;;;;14.45;84.99;101599.66;5108221;28;20499;-59
2021/07/02 02:30:23;;;;;;;17.38;9.35;;;;;;;14.45;84.81;101589.06;5108437;28;20388;-60
2021/07/02 02:32:50;;;;;;;18.35;9.02;;;;;;;14.44;84.58;101590.88;5107528;28;20530;-60
2021/07/02 02:35:17;;;;;;;19.23;9.35;;;;;;;14.44;84.45;101590.00;5111621;28;20047;-60
2021/07/02 02:37:44;;;;;;;22.45;8.57;;;;;;;14.44;84.55;101592.66;5112813;28;20063;-60
2021/07/02 02:40:11;;;;;;;16.42;8.60;;;;;;;14.46;84.56;101585.47;5112293;28;20376;-61
2021/07/02 02:42:38;;;;;;;18.30;8.60;;;;;;;14.45;85.06;101591.72;5112091;28;20085;-59
2021/07/02 02:45:07;;;;;;;18.92;8.93;;;;;;;14.48;84.07;101591.47;5111041;28;20058;-61
2021/07/02 02:47:34;;;;;;;17.08;9.00;;;;;;;14.46;84.51;101585.47;5112697;28;20043;-61
2021/07/02 02:50:03;;;;;;;16.70;8.60;;;;;;;14.41;84.40;101582.28;5111788;28;20044;-61
2021/07/02 02:52:29;;;;;;;17.60;8.70;;;;;;;14.39;84.17;101584.22;5113094;28;20044;-61
2021/07/02 02:54:56;;;;;;;17.15;8.38;;;;;;;14.34;84.53;101584.50;5112958;28;20066;-60
2021/07/02 02:57:23;;;;;;;16.23;8.30;;;;;;;14.33;84.62;101588.13;5112287;28;20065;-55
2021/07/02 02:59:50;;;;;;;20.40;8.63;;;;;;;14.32;83.79;101589.91;5111502;28;20048;-55
2021/07/02 03:02:17;;;;;;;18.63;8.60;;;;;;;14.33;84.31;101585.50;5110923;28;20056;-61
2021/07/02 03:04:44;;;;;;;19.92;8.68;;;;;;;14.33;84.53;101590.78;5111878;28;20056;-61
2021/07/02 03:07:10;;;;;;;18.70;8.75;;;;;;;14.32;84.41;101586.44;5111585;28;20050;-61
2021/07/02 03:09:37;;;;;;;18.60;8.55;;;;;;;14.33;84.32;101591.63;5112950;28;20116;-61
2021/07/02 03:12:04;;;;;;;18.70;9.77;;;;;;;14.27;83.97;101586.72;5111764;28;20056;-61
2021/07/02 03:14:31;;;;;;;19.58;8.85;;;;;;;14.28;83.96;101585.78;5112259;28;20048;-61
2021/07/02 03:16:58;;;;;;;20.58;9.38;;;;;;;14.29;84.27;101587.50;5111854;28;20101;-61
2021/07/02 03:19:25;;;;;;;17.88;9.18;;;;;;;14.24;84.26;101588.75;5111560;28;20040;-55
2021/07/02 03:21:52;;;;;;;18.42;8.32;;;;;;;14.25;84.38;101583.38;5111892;28;20054;-51
2021/07/02 03:24:19;;;;;;;18.65;8.88;;;;;;;14.25;84.34;101583.38;5112494;28;20453;-54
2021/07/02 03:26:46;;;;;;;15.15;8.20;;;;;;;14.20;84.44;101586.31;5111213;27;20053;-55
2021/07/02 03:29:13;;;;;;;15.77;8.30;;;;;;;14.21;83.89;101592.47;5110738;28;20064;-54
2021/07/02 03:31:40;;;;;;;16.15;8.20;;;;;;;14.21;83.99;101597.75;5110913;28;20136;-54
2021/07/02 03:34:07;;;;;;;20.73;9.70;;;;;;;14.21;84.15;101587.16;5111508;27;20048;-61
2021/07/02 03:36:34;;;;;;;13.73;8.32;;;;;;;14.20;83.95;101596.06;5112026;27;20058;-61
2021/07/02 03:39:04;;;;;;;15.80;8.55;;;;;;;14.17;83.98;101590.97;5110759;28;20046;-60
2021/07/02 03:41:31;;;;;;;16.35;9.02;;;;;;;14.16;84.40;101594.56;5110150;28;20495;-61
2021/07/02 03:43:58;;;;;;;15.02;8.40;;;;;;;14.17;84.32;101596.28;5111854;28;20048;-60
2021/07/02 03:46:25;;;;;;;17.20;8.80;;;;;;;14.13;84.70;101592.97;5109879;28;20043;-60
2021/07/02 03:48:52;;;;;;;16.55;9.18;;;;;;;14.11;84.74;101596.69;5110218;28;20062;-61
2021/07/02 03:51:18;;;;;;;19.13;8.85;;;;;;;14.03;85.57;101603.34;5111446;28;20097;-60
2021/07/02 03:53:45;;;;;;;18.98;9.43;;;;;;;14.02;85.38;101599.00;5111949;28;20051;-61
2021/07/02 03:56:12;;;;;;;19.17;10.10;;;;;;;14.03;85.26;101592.75;5111464;28;20051;-61
2021/07/02 03:58:39;;;;;;;16.45;9.20;;;;;;;13.99;85.43;101611.59;5112060;28;20084;-59
2021/07/02 04:01:06;;;;;;;19.60;10.20;;;;;;;13.94;85.69;101611.91;5111113;28;20055;-60
2021/07/02 04:03:33;;;;;;;18.05;9.68;;;;;;;13.86;86.34;101611.56;5110164;28;20484;-60
2021/07/02 04:06:00;;;;;;;21.33;10.57;;;;;;;13.79;86.53;101610.28;5110547;28;20063;-60
2021/07/02 04:08:26;;;;;;;18.08;10.25;;;;;;;13.88;86.19;101608.81;5110855;28;20039;-60
2021/07/02 04:10:53;;;;;;;20.70;10.57;;;;;;;13.89;85.96;101621.09;5109792;28;20051;-60
2021/07/02 04:13:21;;;;;;;21.90;10.88;;;;;;;13.81;86.30;101611.00;5111359;28;20059;-60
2021/07/02 04:15:49;;;;;;;19.60;9.73;;;;;;;13.88;85.70;101609.69;5110821;28;20062;-60
2021/07/02 04:18:15;;;;;;;20.75;10.15;;;;;;;13.84;86.22;101619.59;5111262;28;20047;-59
2021/07/02 04:20:43;;;;;;;19.88;9.80;;;;;;;13.91;86.03;101620.03;5110987;28;20052;-59
2021/07/02 04:23:09;;;;;;;16.40;9.63;;;;;;;13.84;85.95;101626.69;5111196;28;20044;-54
2021/07/02 04:25:36;;;;;;;23.75;10.63;;;;;;;13.81;85.74;101627.75;5110867;28;20062;-53
2021/07/02 04:28:03;;;;;;;19.55;11.02;;;;;;;13.82;85.56;101629.41;5108925;28;20476;-54
2021/07/02 04:30:30;;;;;;;22.67;10.75;;;;;;;13.78;85.78;101627.09;5110738;28;20861;-55
2021/07/02 04:32:57;;;;;;;18.45;10.88;;;;;;;13.80;86.02;101623.41;5109210;28;20385;-59
2021/07/02 04:35:23;;;;;;;21.55;12.07;;;;;;;13.84;85.88;101622.25;5110362;28;20047;-60
2021/07/02 04:37:50;;;;;;;20.10;11.95;;;;;;;13.85;86.21;101631.00;5109094;28;20044;-54
2021/07/02 04:40:17;;;;;;;20.77;11.38;;;;;;;13.86;85.66;101630.94;5110610;28;20043;-55
2021/07/02 04:42:44;;;;;;;21.13;11.93;;;;;;;13.94;85.93;101632.22;5110177;28;20051;-55
2021/07/02 04:45:11;;;;;;;23.23;11.80;;;;;;;13.98;85.82;101633.69;5109955;28;20084;-59
2021/07/02 04:47:38;;;;;;;27.00;12.13;;;;;;;13.95;86.07;101628.63;5109312;28;20051;-60
2021/07/02 04:50:06;;;;;;;22.27;11.68;;;;;;;13.86;86.58;101628.28;5108358;28;20135;-60
2021/07/02 04:52:33;;;;;;;24.38;12.35;;;;;;;13.97;85.80;101624.91;5110849;28;20047;-61
2021/07/02 04:55:02;;;;;;;22.88;12.88;;;;;;;14.02;85.68;101628.09;5110602;28;20047;-55
2021/07/02 04:57:29;;;;;;;23.13;12.45;;;;;;;14.06;85.67;101633.16;5109552;28;20074;-59
2021/07/02 04:59:59;;;;;;;23.23;12.25;;;;;;;14.05;85.68;101640.25;5109371;28;20035;-53
2021/07/02 05:02:26;;;;;;;23.08;12.20;;;;;;;14.12;85.61;101635.41;5110400;28;20051;-52
2021/07/02 05:04:54;;;;;;;25.73;12.52;;;;;;;14.14;85.64;101634.34;5107634;28;20048;-59
2021/07/02 05:07:21;;;;;;;25.55;13.10;;;;;;;14.25;85.44;101633.63;5110598;28;20040;-59
2021/07/02 05:09:47;;;;;;;25.00;13.35;;;;;;;14.25;85.07;101630.13;5092136;28;20059;-59
2021/07/02 05:12:14;;;;;;;21.33;12.85;;;;;;;14.26;84.65;101627.41;5108716;28;20429;-60
2021/07/02 05:14:41;;;;;;;27.15;13.25;;;;;;;14.16;84.21;101626.31;5108981;28;20127;-60
2021/07/02 05:17:09;;;;;;;26.77;13.30;;;;;;;14.09;85.00;101630.34;5109845;28;20078;-60
2021/07/02 05:19:40;;;;;;;25.02;12.98;;;;;;;14.23;84.90;101630.22;5108168;28;20069;-53
2021/07/02 05:22:17;;;;;;;27.38;13.07;;;;;;;14.32;84.35;101626.13;5109809;28;20245;-54
2021/07/02 05:24:45;;;;;;;27.00;13.30;;;;;;;14.29;84.19;101621.00;5109418;28;20048;-54
2021/07/02 05:27:12;;;;;;;26.55;14.65;;;;;;;14.13;85.16;101629.19;5108144;28;20055;-54
2021/07/02 05:29:39;;;;;;;28.05;15.32;;;;;;;14.12;84.45;101625.66;5109360;28;20938;-54
2021/07/02 05:32:06;;;;;;;26.98;13.02;;;;;;;14.28;84.62;101619.34;5108233;28;20055;-53
2021/07/02 05:34:34;;;;;;;25.73;14.38;;;;;;;14.44;83.77;101624.41;5107961;28;20066;-54
2021/07/02 05:37:01;;;;;;;24.58;13.82;;;;;;;14.53;83.33;101631.72;5075135;28;20092;-53
2021/07/02 05:39:28;;;;;;;26.15;12.63;;;;;;;14.66;83.60;101624.66;5109621;28;20100;-54
2021/07/02 05:41:55;;;;;;;23.13;13.73;;;;;;;14.64;82.47;101626.56;5107586;28;20191;-55
2021/07/02 05:44:22;;;;;;;29.75;14.55;;;;;;;14.68;81.94;101628.06;5109003;28;20529;-54
2021/07/02 05:46:49;;;;;;;23.20;13.52;;;;;;;14.83;81.71;101630.56;5108473;28;20089;-55
2021/07/02 05:49:17;;;;;;;23.70;12.88;;;;;;;14.91;80.98;101625.56;5107896;28;20055;-55
2021/07/02 05:51:43;;;;;;;24.30;13.32;;;;;;;14.99;79.57;101627.66;5109966;28;20089;-53
2021/07/02 05:54:12;;;;;;;24.20;12.32;;;;;;;15.10;80.01;101618.97;5109504;28;20051;-52
2021/07/02 05:56:39;;;;;;;26.88;12.40;;;;;;;15.21;79.67;101626.97;5108885;28;20063;-54
2021/07/02 05:59:06;;;;;;;22.27;13.20;;;;;;;15.24;79.34;101616.13;5109341;28;20056;-58
2021/07/02 06:01:33;;;;;;;25.33;12.00;;;;;;;15.36;79.02;101628.50;5107753;28;20051;-54
2021/07/02 06:04:00;;;;;;;26.02;12.85;;;;;;;15.43;77.73;101639.50;5107675;28;20093;-53
2021/07/02 06:06:27;;;;;;;22.75;12.10;;;;;;;15.55;78.04;101635.94;5109649;28;20052;-52
2021/07/02 06:08:55;;;;;;;24.40;12.85;;;;;;;15.64;76.70;101636.25;5112246;28;20538;-54
2021/07/02 06:11:21;;;;;;;21.92;11.65;;;;;;;15.73;77.21;101632.88;5094914;28;20105;-54
2021/07/02 07:46:24;;;;;;;14.63;8.50;;;;;;;19.88;61.11;101661.69;5043586;28;20681;-58
2021/07/02 07:49:09;;;;;;;14.07;8.20;;;;;;;19.98;62.14;101666.19;5071362;22;20107;-56
2021/07/02 07:51:49;;;;;;;13.73;8.68;;;;;;;20.03;61.85;101664.75;5070482;28;20044;-59
2021/07/02 07:54:16;;;;;;;15.40;8.95;;;;;;;20.03;62.20;101664.75;5071735;28;20444;-59
2021/07/02 07:56:52;;;;;;;14.57;9.15;;;;;;;20.06;61.14;101671.66;5071369;28;20052;-59
2021/07/02 07:59:21;;;;;;;18.48;9.55;;;;;;;19.97;61.85;101669.81;5071143;28;20102;-59
2021/07/02 08:01:48;;;;;;;17.52;9.45;;;;;;;19.93;61.23;101658.56;5070983;28;20087;-60
2021/07/02 08:04:15;;;;;;;15.48;9.73;;;;;;;19.98;61.34;101659.00;5085694;28;20474;-56
2021/07/02 08:06:43;;;;;;;17.70;9.27;;;;;;;20.19;60.65;101658.00;5069770;28;20514;-59
2021/07/02 08:09:11;;;;;;;16.23;9.15;;;;;;;20.35;61.95;101660.91;5071048;28;20044;-60
2021/07/02 08:11:39;;;;;;;13.70;8.57;;;;;;;20.53;59.60;101660.16;5086606;28;20044;-59
2021/07/02 08:14:07;;;;;;;17.48;9.40;;;;;;;20.62;59.37;101659.28;5070741;28;20045;-62
2021/07/02 08:16:34;;;;;;;19.42;10.68;;;;;;;20.30;60.40;101665.00;5086154;28;20052;-59
2021/07/02 08:19:02;;;;;;;14.75;8.45;;;;;;;20.69;59.79;101667.59;5067794;28;20045;-59
2021/07/02 08:21:29;;;;;;;16.00;8.55;;;;;;;20.99;59.50;101663.78;5069715;28;20044;-59
2021/07/02 08:23:56;;;;;;;14.48;8.90;;;;;;;21.04;58.12;101664.19;5070482;28;20044;-57
2021/07/02 08:26:25;;;;;;;15.40;9.18;;;;;;;21.10;57.98;101665.41;5070272;28;20110;-57
2021/07/02 08:31:37;;;;;;;12.20;7.70;;;;;;;21.27;59.03;101663.78;5067858;28;20111;-57
2021/07/02 08:34:04;;;;;;;16.38;7.57;;;;;;;21.11;57.84;101662.59;5067918;28;20401;-57
2021/07/02 08:36:31;;;;;;;14.05;7.20;;;;;;;21.34;56.60;101658.69;5070108;28;20053;-57
2021/07/02 08:38:58;;;;;;;13.57;7.43;;;;;;;21.44;57.27;101657.59;5069932;28;20485;-57
2021/07/02 08:41:24;;;;;;;11.27;7.35;;;;;;;21.47;56.37;101655.63;5070108;28;20040;-58
2021/07/02 08:43:51;;;;;;;12.43;7.55;;;;;;;21.52;57.49;101648.81;5068661;28;20055;-58
2021/07/02 08:46:21;;;;;;;14.23;7.68;;;;;;;21.56;58.23;101660.09;5070384;28;20052;-57
2021/07/02 08:48:50;;;;;;;35.67;9.38;;;;;;;21.40;57.66;101656.22;5067698;28;20079;-56
2021/07/02 08:51:18;;;;;;;24.58;8.60;;;;;;;21.39;59.21;101667.06;5069976;28;20067;-60
2021/07/02 08:53:45;;;;;;;13.13;7.53;;;;;;;21.44;59.04;101662.09;5070337;28;20067;-60
2021/07/02 08:56:12;;;;;;;13.10;7.47;;;;;;;21.52;58.38;101664.88;5069999;28;20493;-57
2021/07/02 08:58:39;;;;;;;10.48;6.90;;;;;;;21.50;59.37;101668.69;5068455;28;20083;-58
2021/07/02 09:01:09;;;;;;;14.63;7.72;;;;;;;21.56;58.13;101665.44;5051835;28;20764;-60
2021/07/02 09:03:38;;;;;;;13.20;7.78;;;;;;;21.44;58.23;101673.66;5068233;28;20110;-57
2021/07/02 09:06:17;;;;;;;14.07;7.88;;;;;;;21.30;57.96;101668.81;5069437;28;20048;-58
2021/07/02 09:09:02;;;;;;;14.60;7.20;;;;;;;21.31;58.99;101672.34;5070770;28;20048;-58
2021/07/02 09:11:31;;;;;;;12.88;7.35;;;;;;;21.09;59.31;101671.75;5070479;28;20541;-58
2021/07/02 09:13:59;;;;;;;12.65;8.20;;;;;;;21.03;59.20;101675.88;5068277;28;20049;-57
2021/07/02 09:16:28;;;;;;;15.68;9.25;;;;;;;21.19;60.00;101677.06;5069475;28;20049;-57
2021/07/02 09:18:55;;;;;;;15.85;9.40;;;;;;;21.09;60.71;101677.97;5066225;28;20185;-57
2021/07/02 09:21:31;;;;;;;16.38;9.73;;;;;;;20.86;59.83;101682.84;5085075;28;20480;-57
2021/07/02 09:23:58;;;;;;;16.92;10.65;;;;;;;20.98;60.23;101686.16;5069743;28;20436;-60
2021/07/02 09:26:40;;;;;;;17.98;10.57;;;;;;;21.06;61.21;101680.91;5068673;28;20385;-61
2021/07/02 09:29:21;;;;;;;17.15;10.35;;;;;;;21.03;60.09;101681.22;5069234;28;20052;-60
2021/07/02 09:32:00;;;;;;;15.52;9.07;;;;;;;21.12;59.67;101676.81;5083628;28;20150;-57
2021/07/02 09:34:46;;;;;;;15.30;8.88;;;;;;;21.44;58.50;101672.81;5068724;28;20106;-61
2021/07/02 09:37:25;;;;;;;17.25;9.85;;;;;;;21.24;59.01;101682.78;5066973;28;20051;-61
2021/07/02 09:39:52;;;;;;;15.35;8.82;;;;;;;21.23;59.38;101681.13;5068664;28;20067;-57
2021/07/02 09:42:26;;;;;;;13.73;8.70;;;;;;;21.31;59.52;101685.72;5084148;28;20048;-58
2021/07/02 09:45:13;;;;;;;14.82;8.82;;;;;;;21.64;58.49;101678.91;5073009;28;20559;-61
2021/07/02 09:47:41;;;;;;;15.40;8.48;;;;;;;21.77;58.10;101684.72;5068847;28;20068;-62
2021/07/02 09:50:19;;;;;;;14.88;9.20;;;;;;;21.91;57.36;101683.34;5088172;28;20517;-61
2021/07/02 09:52:46;;;;;;;14.00;8.18;;;;;;;22.03;57.62;101685.75;5073161;28;20497;-61
2021/07/02 09:55:15;;;;;;;14.88;8.75;;;;;;;22.32;56.93;101685.47;5072744;28;20416;-61
2021/07/02 09:57:42;;;;;;;13.48;8.40;;;;;;;22.14;58.86;101698.06;5072156;28;20209;-62
2021/07/02 10:00:12;;;;;;;16.63;10.13;;;;;;;22.22;57.17;101700.81;5070671;28;20118;-62
2021/07/02 10:02:39;;;;;;;14.10;9.45;;;;;;;22.26;57.65;101699.50;5070294;28;20063;-60
2021/07/02 10:05:07;;;;;;;13.70;8.13;;;;;;;22.40;55.63;101701.66;5070871;28;20059;-58
2021/07/02 10:07:34;;;;;;;12.70;8.32;;;;;;;22.59;55.34;101699.72;5071418;28;20047;-56
2021/07/02 10:10:02;;;;;;;14.20;9.07;;;;;;;23.01;55.48;101706.16;5071626;28;20053;-61
2021/07/02 10:12:29;;;;;;;15.35;9.15;;;;;;;23.09;55.02;101709.69;5071497;28;20051;-61
2021/07/02 10:14:57;;;;;;;17.25;10.90;;;;;;;22.95;53.56;101711.16;5087664;28;20526;-61
2021/07/02 10:17:26;;;;;;;16.27;10.15;;;;;;;22.87;56.22;101715.66;5069897;28;20397;-61
2021/07/02 10:19:54;;;;;;;18.48;11.60;;;;;;;22.87;55.96;101721.00;5076563;28;20044;-61
2021/07/02 10:22:23;;;;;;;20.35;10.68;;;;;;;22.84;56.71;101722.16;5074816;28;20059;-61
2021/07/02 10:24:52;;;;;;;22.20;10.30;;;;;;;23.11;55.95;101723.81;5065870;28;20500;-60
2021/07/02 10:27:19;;;;;;;17.17;10.15;;;;;;;23.04;54.52;101725.47;5073281;28;20173;-61
2021/07/02 10:29:46;;;;;;;19.67;10.10;;;;;;;23.19;55.39;101732.91;5089804;28;20428;-60
2021/07/02 10:32:14;;;;;;;17.73;11.73;;;;;;;23.17;54.49;101724.19;5074421;28;20055;-62
2021/07/02 10:34:42;;;;;;;16.92;11.30;;;;;;;23.10;54.65;101722.13;5072792;28;20079;-60
2021/07/02 10:37:09;;;;;;;17.40;10.52;;;;;;;22.99;54.16;101725.09;5073032;28;20052;-56
2021/07/02 10:39:37;;;;;;;16.80;9.57;;;;;;;22.85;54.89;101729.22;5084690;28;20051;-57
2021/07/02 10:42:06;;;;;;;14.07;9.00;;;;;;;23.06;55.63;101731.47;5079565;28;20484;-57
2021/07/02 10:44:33;;;;;;;15.77;10.15;;;;;;;23.19;54.72;101733.75;5075815;28;20056;-57
2021/07/02 10:47:02;;;;;;;15.27;9.25;;;;;;;23.14;55.13;101736.09;5070963;28;20054;-57
2021/07/02 10:49:37;;;;;;;15.45;9.70;;;;;;;23.43;54.19;101735.66;5074776;28;20079;-57
2021/07/02 10:52:24;;;;;;;16.63;9.63;;;;;;;23.44;54.25;101732.00;5077076;28;20076;-57
2021/07/02 10:54:56;;;;;;;14.45;9.45;;;;;;;23.48;54.67;101734.34;5070812;28;20114;-56
2021/07/02 10:57:25;;;;;;;18.45;11.13;;;;;;;23.23;54.06;101739.63;5072947;28;20488;-56
2021/07/02 10:59:52;;;;;;;16.92;9.35;;;;;;;23.48;54.01;101742.38;5080169;28;20060;-56
2021/07/02 11:02:23;;;;;;;16.75;10.93;;;;;;;23.52;53.07;101747.28;5069311;28;20887;-56
2021/07/02 11:04:52;;;;;;;16.50;10.85;;;;;;;23.35;55.34;101743.69;5079530;28;20048;-57
2021/07/02 11:07:22;;;;;;;15.38;9.85;;;;;;;23.31;54.50;101749.56;5078844;28;20055;-56
2021/07/02 11:09:49;;;;;;;13.88;8.63;;;;;;;23.10;53.78;101753.47;5086686;28;20048;-56
2021/07/02 11:12:44;;;;;;;13.57;8.50;;;;;;;22.82;54.55;101750.97;5070675;28;20090;-56
2021/07/02 11:15:16;;;;;;;13.48;8.88;;;;;;;22.67;55.40;101753.38;5071488;28;20045;-56
2021/07/02 11:17:47;;;;;;;;;;;;;;;22.73;55.38;101744.72;5069527;28;20044;-57
2021/07/02 11:20:18;;;;;;;13.68;9.52;;;;;;;22.56;55.32;101745.63;5070656;28;20014;-56
2021/07/02 11:22:48;;;;;;;13.52;8.85;;;;;;;22.83;55.78;101749.16;5070887;28;20051;-56
2021/07/02 11:28:16;;;;;;;15.80;10.23;;;;;;;22.57;56.75;101744.63;5053639;28;20090;-58
2021/07/02 11:30:44;;;;;;;17.27;10.20;;;;;;;22.69;57.21;101756.78;5069837;28;20052;-56
2021/07/02 11:33:11;;;;;;;15.52;9.55;;;;;;;22.70;56.31;101753.09;5068109;28;20054;-57
2021/07/02 11:35:50;;;;;;;14.88;9.13;;;;;;;22.75;55.44;101760.66;5071061;28;20060;-58
2021/07/02 11:38:18;;;;;;;12.18;7.72;;;;;;;22.88;55.28;101758.38;5069470;28;20052;-57
2021/07/02 11:40:54;;;;;;;12.93;8.40;;;;;;;22.83;55.15;101746.47;5069709;28;20410;-58
2021/07/02 11:43:31;;;;;;;13.38;8.52;;;;;;;22.79;55.60;101752.13;5070495;28;20048;-57
2021/07/02 11:46:01;;;;;;;15.52;10.32;;;;;;;22.48;55.94;101741.03;5070131;28;20048;-57
2021/07/02 11:48:31;;;;;;;14.48;9.82;;;;;;;22.09;56.77;101744.06;5066629;28;20057;-57
2021/07/02 11:51:00;;;;;;;15.15;10.05;;;;;;;22.20;57.01;101749.19;5070163;28;20044;-57
2021/07/02 11:53:39;;;;;;;15.68;9.30;;;;;;;22.36;57.64;101743.16;5070155;28;20091;-57
2021/07/02 11:56:24;;;;;;;15.23;10.07;;;;;;;22.33;56.67;101746.09;5068960;28;20048;-57
2021/07/02 11:59:03;;;;;;;14.68;9.05;;;;;;;21.98;58.59;101745.16;5068371;28;20061;-57
2021/07/02 12:01:38;;;;;;;14.82;10.02;;;;;;;22.06;58.86;101747.91;5069667;28;20045;-58
2021/07/02 12:04:25;;;;;;;17.77;10.45;;;;;;;22.05;58.55;101743.53;5069211;28;20407;-58
2021/07/02 12:06:52;;;;;;;16.88;10.25;;;;;;;22.08;59.11;101753.91;5069641;28;20508;-58
2021/07/02 12:09:21;;;;;;;15.85;9.65;;;;;;;22.04;60.84;101752.53;5068806;28;20055;-57
2021/07/02 12:11:56;;;;;;;16.60;10.80;;;;;;;21.85;59.79;101758.06;5068127;28;20053;-58
2021/07/02 12:14:32;;;;;;;16.08;9.80;;;;;;;21.83;60.82;101746.66;5069353;28;20055;-57
2021/07/02 12:17:01;;;;;;;14.75;9.70;;;;;;;21.74;61.09;101751.94;5068085;28;20044;-57
2021/07/02 12:19:31;;;;;;;17.60;10.70;;;;;;;21.85;60.52;101742.00;5069904;28;20048;-57
2021/07/02 12:22:00;;;;;;;16.65;9.88;;;;;;;21.63;61.54;101752.16;5069795;28;20047;-57
2021/07/02 12:24:32;;;;;;;16.30;9.55;;;;;;;21.49;61.79;101752.63;5069571;28;20052;-56
2021/07/02 12:27:09;;;;;;;14.25;9.05;;;;;;;21.68;61.75;101751.69;5069067;28;20050;-59
2021/07/02 12:29:36;;;;;;;36.30;10.93;;;;;;;21.73;61.58;101750.25;5069552;28;20110;-58
2021/07/02 12:32:07;;;;;;;19.98;9.05;;;;;;;21.90;60.98;101750.41;5068869;28;20135;-66
2021/07/02 12:34:45;;;;;;;24.85;10.52;;;;;;;21.64;60.88;101752.97;5082242;28;20557;-62
2021/07/02 12:37:26;;;;;;;51.55;11.95;;;;;;;21.86;61.45;101746.38;5052956;28;20060;-57
2021/07/02 12:39:57;;;;;;;25.50;9.40;;;;;;;21.94;60.63;101744.59;5069030;28;20070;-59
2021/07/02 12:42:42;;;;;;;13.52;7.70;;;;;;;22.08;60.89;101750.41;5068924;28;20099;-61
2021/07/02 12:45:15;;;;;;;12.45;8.30;;;;;;;21.97;60.24;101740.78;5086410;28;20510;-59
2021/07/02 12:47:42;;;;;;;14.90;8.60;;;;;;;22.14;59.73;101732.88;5084718;28;20374;-58
2021/07/02 12:50:17;;;;;;;14.98;7.65;;;;;;;22.21;59.35;101737.47;5074124;28;20052;-59
2021/07/02 12:55:39;;;;;;;11.88;7.53;;;;;;;22.20;58.73;101733.09;5088338;28;20053;-60
2021/07/02 12:58:06;;;;;;;73.75;12.93;;;;;;;22.08;60.24;101735.19;5071076;28;20067;-60
2021/07/02 13:00:33;;;;;;;14.77;8.93;;;;;;;22.11;60.09;101728.66;5087388;28;20066;-61
2021/07/02 13:03:05;;;;;;;14.35;9.23;;;;;;;21.89;59.71;101738.03;5050936;28;20090;-62